createdAt,value
2019-03-16T00:00:46.758Z,8.22
2019-03-16T00:01:56.516Z,8.16
2019-03-16T00:02:46.722Z,8.16
2019-03-16T00:03:46.693Z,8.10
2019-03-16T00:04:46.670Z,8.11
2019-03-16T00:05:46.648Z,8.07
2019-03-16T00:06:46.619Z,8.18
2019-03-16T00:07:46.609Z,8.10
2019-03-16T00:08:46.574Z,8.12
2019-03-16T00:09:46.552Z,8.11
2019-03-16T00:10:46.527Z,8.25
2019-03-16T00:11:46.537Z,8.11
2019-03-16T00:12:46.486Z,8.25
2019-03-16T00:13:46.460Z,8.11
2019-03-16T00:14:46.440Z,8.16
2019-03-16T00:15:46.412Z,8.15
2019-03-16T00:16:46.402Z,8.16
2019-03-16T00:17:46.367Z,8.12
2019-03-16T00:18:46.356Z,8.10
2019-03-16T00:19:46.320Z,8.18
2019-03-16T00:20:46.296Z,8.20
2019-03-16T00:21:46.287Z,8.20
2019-03-16T00:22:46.269Z,8.15
2019-03-16T00:23:46.228Z,8.16
2019-03-16T00:24:46.209Z,8.19
2019-03-16T00:25:46.181Z,8.16
2019-03-16T00:26:46.157Z,8.10
2019-03-16T00:27:46.135Z,8.12
2019-03-16T00:28:46.121Z,8.12
2019-03-16T00:29:46.088Z,8.18
2019-03-16T00:30:46.065Z,8.12
2019-03-16T00:31:46.042Z,8.20
2019-03-16T00:32:46.026Z,8.19
2019-03-16T00:33:45.999Z,8.23
2019-03-16T00:34:45.973Z,8.20
2019-03-16T00:35:45.955Z,8.26
2019-03-16T00:36:45.925Z,8.20
2019-03-16T00:37:45.912Z,8.20
2019-03-16T00:38:45.882Z,8.19
2019-03-16T00:39:45.859Z,8.28
2019-03-16T00:40:45.835Z,8.20
2019-03-16T00:41:45.810Z,8.20
2019-03-16T00:42:45.788Z,8.22
2019-03-16T00:43:45.765Z,8.23
2019-03-16T00:44:45.742Z,8.28
2019-03-16T00:45:45.729Z,8.18
2019-03-16T00:46:45.700Z,8.18
2019-03-16T00:47:45.682Z,8.19
2019-03-16T00:48:45.655Z,8.26
2019-03-16T00:49:45.630Z,8.28
2019-03-16T00:50:45.614Z,8.30
2019-03-16T00:51:45.617Z,8.28
2019-03-16T00:52:45.563Z,8.28
2019-03-16T00:53:45.535Z,8.26
2019-03-16T00:54:45.518Z,8.28
2019-03-16T00:55:45.488Z,8.23
2019-03-16T00:56:45.464Z,8.22
2019-03-16T00:57:45.448Z,8.26
2019-03-16T00:58:45.425Z,8.18
2019-03-16T00:59:45.396Z,8.20
2019-03-16T01:00:45.373Z,8.29
2019-03-16T01:01:45.347Z,8.29
2019-03-16T01:02:45.324Z,8.37
2019-03-16T01:03:45.301Z,8.36
2019-03-16T01:04:45.279Z,8.34
2019-03-16T01:05:45.258Z,8.41
2019-03-16T01:06:45.231Z,8.36
2019-03-16T01:07:45.216Z,8.37
2019-03-16T01:08:45.186Z,8.38
2019-03-16T01:09:45.162Z,8.34
2019-03-16T01:10:45.141Z,8.38
2019-03-16T01:11:45.118Z,8.30
2019-03-16T01:12:45.094Z,8.38
2019-03-16T01:13:45.071Z,8.29
2019-03-16T01:14:45.047Z,8.36
2019-03-16T01:15:45.025Z,8.29
2019-03-16T01:16:45.009Z,8.36
2019-03-16T01:17:44.977Z,8.33
2019-03-16T01:18:44.952Z,8.29
2019-03-16T01:19:44.929Z,8.36
2019-03-16T01:20:44.909Z,8.38
2019-03-16T01:21:44.885Z,8.43
2019-03-16T01:22:44.869Z,8.40
2019-03-16T01:23:44.837Z,8.38
2019-03-16T01:24:44.813Z,8.34
2019-03-16T01:25:44.791Z,8.38
2019-03-16T01:26:44.773Z,8.30
2019-03-16T01:27:44.749Z,8.34
2019-03-16T01:28:44.752Z,8.37
2019-03-16T01:29:44.700Z,8.30
2019-03-16T01:30:44.680Z,8.29
2019-03-16T01:31:44.663Z,8.23
2019-03-16T01:32:44.628Z,8.23
2019-03-16T01:33:44.607Z,8.29
2019-03-16T01:34:44.624Z,8.37
2019-03-16T01:35:44.572Z,8.34
2019-03-16T01:36:44.534Z,8.36
2019-03-16T01:37:44.512Z,8.34
2019-03-16T01:38:44.487Z,8.34
2019-03-16T01:39:44.469Z,8.22
2019-03-16T01:40:44.444Z,8.22
2019-03-16T01:41:44.430Z,8.25
2019-03-16T01:42:44.399Z,8.25
2019-03-16T01:43:44.378Z,8.20
2019-03-16T01:44:44.349Z,8.28
2019-03-16T01:45:44.327Z,8.30
2019-03-16T01:46:44.306Z,8.28
2019-03-16T01:47:44.280Z,8.28
2019-03-16T01:48:44.259Z,8.25
2019-03-16T01:49:44.238Z,8.36
2019-03-16T01:50:44.217Z,8.25
2019-03-16T01:51:44.253Z,8.36
2019-03-16T01:52:44.165Z,8.30
2019-03-16T01:53:44.144Z,8.28
2019-03-16T01:54:44.119Z,8.23
2019-03-16T01:55:44.097Z,8.26
2019-03-16T01:56:44.072Z,8.25
2019-03-16T01:57:44.052Z,8.26
2019-03-16T01:58:44.026Z,8.25
2019-03-16T01:59:44.005Z,8.19
2019-03-16T02:00:43.981Z,8.20
2019-03-16T02:01:43.959Z,8.26
2019-03-16T02:02:54.257Z,8.19
2019-03-16T02:03:43.912Z,8.25
2019-03-16T02:04:43.892Z,8.25
2019-03-16T02:05:43.866Z,8.23
2019-03-16T02:06:43.840Z,8.29
2019-03-16T02:07:43.819Z,8.16
2019-03-16T02:08:43.796Z,8.20
2019-03-16T02:09:43.776Z,8.20
2019-03-16T02:10:43.763Z,8.22
2019-03-16T02:11:43.748Z,8.22
2019-03-16T02:12:43.708Z,8.23
2019-03-16T02:13:43.695Z,8.25
2019-03-16T02:14:43.659Z,8.26
2019-03-16T02:15:43.634Z,8.22
2019-03-16T02:16:43.612Z,8.22
2019-03-16T02:17:43.601Z,8.22
2019-03-16T02:18:43.564Z,8.19
2019-03-16T02:19:43.544Z,8.16
2019-03-16T02:20:43.517Z,8.25
2019-03-16T02:21:43.550Z,8.19
2019-03-16T02:22:43.471Z,8.20
2019-03-16T02:23:43.461Z,8.20
2019-03-16T02:24:43.432Z,8.23
2019-03-16T02:25:43.405Z,8.22
2019-03-16T02:26:43.379Z,8.29
2019-03-16T02:27:43.358Z,8.23
2019-03-16T02:28:43.340Z,8.19
2019-03-16T02:29:43.322Z,8.23
2019-03-16T02:30:43.288Z,8.11
2019-03-16T02:31:43.274Z,8.15
2019-03-16T02:32:43.253Z,8.19
2019-03-16T02:33:43.225Z,8.22
2019-03-16T02:34:43.196Z,8.19
2019-03-16T02:35:43.182Z,8.23
2019-03-16T02:36:43.150Z,8.23
2019-03-16T02:37:43.137Z,8.20
2019-03-16T02:38:43.108Z,8.20
2019-03-16T02:39:43.080Z,8.20
2019-03-16T02:40:43.062Z,8.12
2019-03-16T02:41:43.037Z,8.23
2019-03-16T02:42:43.009Z,8.20
2019-03-16T02:43:42.996Z,8.22
2019-03-16T02:44:42.967Z,8.22
2019-03-16T02:45:42.942Z,8.20
2019-03-16T02:46:42.926Z,8.19
2019-03-16T02:47:42.899Z,8.11
2019-03-16T02:48:42.877Z,8.19
2019-03-16T02:49:42.853Z,8.22
2019-03-16T02:50:42.834Z,8.19
2019-03-16T02:51:42.801Z,8.19
2019-03-16T02:52:42.778Z,8.11
2019-03-16T02:53:42.762Z,8.12
2019-03-16T02:54:42.734Z,8.11
2019-03-16T02:55:42.712Z,8.23
2019-03-16T02:56:42.689Z,8.10
2019-03-16T02:57:42.688Z,8.20
2019-03-16T02:58:42.653Z,8.22
2019-03-16T02:59:42.618Z,8.10
2019-03-16T03:00:42.600Z,8.11
2019-03-16T03:01:42.580Z,8.11
2019-03-16T03:02:42.551Z,8.26
2019-03-16T03:03:42.532Z,8.25
2019-03-16T03:04:46.048Z,8.19
2019-03-16T03:05:42.482Z,8.19
2019-03-16T03:06:42.462Z,8.22
2019-03-16T03:07:42.445Z,8.18
2019-03-16T03:08:42.418Z,8.15
2019-03-16T03:09:42.397Z,8.19
2019-03-16T03:10:42.363Z,8.23
2019-03-16T03:11:42.342Z,8.22
2019-03-16T03:12:42.319Z,8.11
2019-03-16T03:13:42.295Z,8.11
2019-03-16T03:14:42.273Z,8.08
2019-03-16T03:15:42.259Z,8.10
2019-03-16T03:16:42.229Z,8.12
2019-03-16T03:17:42.207Z,8.11
2019-03-16T03:18:42.202Z,8.10
2019-03-16T03:19:42.154Z,8.07
2019-03-16T03:20:42.134Z,8.10
2019-03-16T03:21:42.143Z,8.18
2019-03-16T03:22:42.088Z,8.10
2019-03-16T03:23:42.070Z,8.12
2019-03-16T03:24:44.291Z,8.20
2019-03-16T03:25:42.019Z,8.10
2019-03-16T03:26:42.005Z,8.16
2019-03-16T03:27:41.981Z,8.18
2019-03-16T03:28:41.947Z,8.18
2019-03-16T03:29:41.927Z,8.18
2019-03-16T03:30:41.907Z,8.20
2019-03-16T03:31:41.878Z,8.26
2019-03-16T03:32:41.896Z,8.18
2019-03-16T03:33:59.064Z,8.20
2019-03-16T03:34:41.809Z,8.10
2019-03-16T03:35:41.785Z,8.19
2019-03-16T03:36:41.760Z,8.19
2019-03-16T03:37:41.838Z,8.19
2019-03-16T03:38:41.715Z,8.20
2019-03-16T03:39:41.696Z,8.22
2019-03-16T03:40:41.675Z,8.22
2019-03-16T03:41:41.658Z,8.20
2019-03-16T03:42:41.646Z,8.18
2019-03-16T03:43:41.603Z,8.16
2019-03-16T03:44:41.577Z,8.18
2019-03-16T03:45:41.555Z,8.19
2019-03-16T03:46:41.533Z,8.25
2019-03-16T03:47:41.542Z,8.20
2019-03-16T03:48:41.485Z,8.20
2019-03-16T03:49:41.459Z,8.25
2019-03-16T03:50:41.441Z,8.15
2019-03-16T03:51:41.417Z,8.23
2019-03-16T03:52:41.395Z,8.23
2019-03-16T03:53:41.602Z,8.20
2019-03-16T03:54:41.347Z,8.20
2019-03-16T03:55:41.325Z,8.20
2019-03-16T03:56:41.315Z,8.18
2019-03-16T03:57:41.280Z,8.19
2019-03-16T03:58:41.252Z,8.23
2019-03-16T03:59:41.231Z,8.11
2019-03-16T04:00:41.207Z,8.22
2019-03-16T04:01:41.194Z,8.07
2019-03-16T04:02:41.164Z,8.25
2019-03-16T04:03:41.139Z,8.07
2019-03-16T04:04:41.116Z,8.15
2019-03-16T04:05:41.094Z,8.16
2019-03-16T04:06:41.068Z,8.08
2019-03-16T04:07:41.045Z,8.10
2019-03-16T04:08:41.024Z,8.19
2019-03-16T04:09:41.008Z,8.16
2019-03-16T04:10:40.979Z,8.12
2019-03-16T04:11:40.954Z,8.10
2019-03-16T04:12:40.931Z,8.16
2019-03-16T04:13:40.913Z,8.10
2019-03-16T04:14:40.892Z,8.10
2019-03-16T04:15:40.861Z,8.11
2019-03-16T04:16:40.838Z,8.10
2019-03-16T04:17:40.829Z,8.10
2019-03-16T04:18:40.797Z,8.12
2019-03-16T04:19:40.771Z,8.19
2019-03-16T04:20:40.747Z,8.15
2019-03-16T04:21:40.752Z,8.28
2019-03-16T04:22:40.715Z,8.18
2019-03-16T04:23:40.676Z,8.22
2019-03-16T04:24:44.905Z,8.19
2019-03-16T04:25:40.647Z,8.30
2019-03-16T04:26:40.608Z,8.37
2019-03-16T04:27:40.586Z,8.41
2019-03-16T04:28:40.562Z,8.36
2019-03-16T04:29:40.540Z,8.36
2019-03-16T04:30:40.512Z,8.41
2019-03-16T04:31:40.489Z,8.34
2019-03-16T04:32:40.469Z,8.28
2019-03-16T04:33:40.450Z,8.34
2019-03-16T04:34:40.420Z,8.25
2019-03-16T04:35:40.400Z,8.19
2019-03-16T04:36:40.372Z,8.25
2019-03-16T04:37:40.350Z,8.18
2019-03-16T04:38:40.327Z,8.18
2019-03-16T04:39:40.305Z,8.19
2019-03-16T04:40:40.280Z,8.23
2019-03-16T04:41:40.257Z,8.11
2019-03-16T04:42:40.242Z,8.20
2019-03-16T04:43:40.211Z,8.23
2019-03-16T04:44:40.188Z,8.10
2019-03-16T04:45:40.164Z,8.10
2019-03-16T04:46:40.146Z,8.10
2019-03-16T04:47:40.119Z,8.12
2019-03-16T04:48:40.093Z,8.15
2019-03-16T04:49:40.070Z,8.16
2019-03-16T04:50:40.046Z,8.11
2019-03-16T04:51:40.028Z,8.02
2019-03-16T04:52:40.006Z,7.95
2019-03-16T04:53:39.979Z,8.02
2019-03-16T04:54:39.955Z,7.98
2019-03-16T04:55:39.929Z,7.89
2019-03-16T04:56:39.907Z,7.87
2019-03-16T04:57:39.884Z,7.95
2019-03-16T04:58:39.859Z,7.87
2019-03-16T04:59:39.836Z,7.86
2019-03-16T05:00:39.814Z,7.89
2019-03-16T05:01:39.790Z,7.92
2019-03-16T05:02:39.766Z,7.85
2019-03-16T05:03:39.743Z,7.82
2019-03-16T05:04:42.791Z,7.86
2019-03-16T05:05:39.698Z,7.80
2019-03-16T05:06:39.674Z,7.85
2019-03-16T05:07:39.650Z,7.79
2019-03-16T05:08:39.637Z,7.86
2019-03-16T05:09:39.602Z,7.75
2019-03-16T05:10:39.580Z,7.79
2019-03-16T05:11:39.565Z,7.80
2019-03-16T05:12:39.536Z,7.72
2019-03-16T05:13:39.514Z,7.75
2019-03-16T05:14:39.485Z,7.79
2019-03-16T05:15:39.466Z,7.80
2019-03-16T05:16:39.442Z,7.79
2019-03-16T05:17:39.421Z,7.79
2019-03-16T05:18:39.393Z,7.86
2019-03-16T05:19:39.376Z,7.83
2019-03-16T05:20:39.345Z,7.85
2019-03-16T05:21:39.325Z,7.80
2019-03-16T05:22:39.301Z,7.80
2019-03-16T05:23:39.281Z,7.85
2019-03-16T05:24:39.253Z,7.80
2019-03-16T05:25:39.228Z,7.74
2019-03-16T05:26:39.209Z,7.80
2019-03-16T05:27:39.186Z,7.83
2019-03-16T05:28:39.163Z,7.86
2019-03-16T05:29:39.137Z,7.83
2019-03-16T05:30:39.111Z,7.85
2019-03-16T05:31:39.100Z,7.87
2019-03-16T05:32:39.067Z,7.85
2019-03-16T05:33:39.050Z,7.82
2019-03-16T05:34:39.081Z,7.89
2019-03-16T05:35:38.997Z,7.87
2019-03-16T05:36:38.984Z,7.85
2019-03-16T05:37:38.951Z,7.80
2019-03-16T05:38:38.927Z,7.83
2019-03-16T05:39:38.903Z,7.83
2019-03-16T05:40:38.881Z,7.82
2019-03-16T05:41:38.857Z,7.83
2019-03-16T05:42:38.837Z,7.79
2019-03-16T05:43:38.808Z,7.83
2019-03-16T05:44:38.785Z,7.75
2019-03-16T05:45:38.767Z,7.83
2019-03-16T05:46:38.749Z,7.80
2019-03-16T05:47:38.722Z,7.69
2019-03-16T05:48:38.704Z,7.74
2019-03-16T05:49:38.673Z,7.74
2019-03-16T05:50:38.646Z,7.79
2019-03-16T05:51:38.622Z,7.72
2019-03-16T05:52:38.599Z,7.82
2019-03-16T05:53:38.579Z,7.79
2019-03-16T05:54:38.560Z,7.71
2019-03-16T05:55:38.529Z,7.68
2019-03-16T05:56:38.509Z,7.71
2019-03-16T05:57:38.487Z,7.67
2019-03-16T05:58:38.461Z,7.69
2019-03-16T05:59:38.439Z,7.53
2019-03-16T06:00:38.547Z,7.52
2019-03-16T06:01:38.394Z,7.57
2019-03-16T06:02:38.369Z,7.53
2019-03-16T06:03:38.346Z,7.67
2019-03-16T06:04:38.327Z,7.61
2019-03-16T06:05:38.299Z,7.71
2019-03-16T06:06:38.273Z,7.64
2019-03-16T06:07:38.257Z,7.64
2019-03-16T06:08:38.229Z,7.64
2019-03-16T06:09:38.205Z,7.52
2019-03-16T06:10:38.180Z,7.63
2019-03-16T06:11:38.157Z,7.60
2019-03-16T06:12:38.135Z,7.52
2019-03-16T06:13:38.110Z,7.74
2019-03-16T06:14:38.087Z,7.63
2019-03-16T06:15:38.062Z,7.68
2019-03-16T06:16:38.041Z,7.67
2019-03-16T06:17:38.018Z,7.71
2019-03-16T06:18:37.992Z,7.61
2019-03-16T06:19:37.972Z,7.67
2019-03-16T06:20:38.025Z,7.68
2019-03-16T06:21:37.925Z,7.71
2019-03-16T06:22:37.906Z,7.61
2019-03-16T06:23:37.880Z,7.64
2019-03-16T06:24:37.856Z,7.61
2019-03-16T06:25:37.832Z,7.67
2019-03-16T06:26:37.808Z,7.60
2019-03-16T06:27:37.784Z,7.71
2019-03-16T06:28:37.762Z,7.63
2019-03-16T06:29:37.740Z,7.64
2019-03-16T06:30:37.715Z,7.64
2019-03-16T06:31:37.692Z,7.64
2019-03-16T06:32:37.668Z,7.60
2019-03-16T06:33:37.658Z,7.55
2019-03-16T06:34:37.622Z,7.52
2019-03-16T06:35:37.608Z,7.50
2019-03-16T06:36:37.577Z,7.52
2019-03-16T06:37:37.554Z,7.45
2019-03-16T06:38:37.531Z,7.52
2019-03-16T06:39:37.506Z,7.46
2019-03-16T06:40:37.491Z,7.50
2019-03-16T06:41:37.461Z,7.52
2019-03-16T06:42:37.440Z,7.57
2019-03-16T06:43:37.414Z,7.50
2019-03-16T06:44:37.400Z,7.52
2019-03-16T06:45:37.367Z,7.46
2019-03-16T06:46:37.345Z,7.45
2019-03-16T06:47:37.343Z,7.53
2019-03-16T06:48:37.298Z,7.46
2019-03-16T06:49:37.272Z,7.46
2019-03-16T06:50:37.250Z,7.46
2019-03-16T06:51:37.229Z,7.50
2019-03-16T06:52:37.208Z,7.49
2019-03-16T06:53:37.180Z,7.50
2019-03-16T06:54:37.157Z,7.45
2019-03-16T06:55:37.131Z,7.43
2019-03-16T06:56:37.110Z,7.48
2019-03-16T06:57:37.086Z,7.53
2019-03-16T06:58:37.063Z,7.43
2019-03-16T06:59:37.040Z,7.40
2019-03-16T07:00:37.016Z,7.43
2019-03-16T07:01:36.999Z,7.50
2019-03-16T07:02:36.969Z,7.42
2019-03-16T07:03:36.952Z,7.40
2019-03-16T07:04:36.931Z,7.42
2019-03-16T07:05:38.579Z,7.40
2019-03-16T07:06:36.882Z,7.46
2019-03-16T07:07:36.858Z,7.45
2019-03-16T07:08:36.832Z,7.52
2019-03-16T07:09:36.810Z,7.49
2019-03-16T07:10:36.784Z,7.49
2019-03-16T07:11:36.762Z,7.50
2019-03-16T07:12:36.739Z,7.42
2019-03-16T07:13:36.716Z,7.48
2019-03-16T07:14:36.690Z,7.58
2019-03-16T07:15:36.669Z,7.48
2019-03-16T07:16:36.646Z,7.53
2019-03-16T07:17:36.626Z,7.53
2019-03-16T07:18:36.607Z,7.43
2019-03-16T07:19:36.579Z,7.50
2019-03-16T07:20:36.556Z,7.45
2019-03-16T07:21:36.532Z,7.39
2019-03-16T07:22:36.512Z,7.35
2019-03-16T07:23:36.587Z,7.40
2019-03-16T07:24:36.469Z,7.37
2019-03-16T07:25:36.436Z,7.40
2019-03-16T07:26:36.415Z,7.40
2019-03-16T07:27:36.390Z,7.35
2019-03-16T07:28:36.376Z,7.43
2019-03-16T07:29:36.346Z,7.40
2019-03-16T07:30:37.385Z,7.37
2019-03-16T07:31:36.305Z,7.37
2019-03-16T07:32:36.276Z,7.24
2019-03-16T07:33:36.254Z,7.27
2019-03-16T07:34:36.231Z,7.27
2019-03-16T07:35:36.207Z,7.24
2019-03-16T07:36:36.398Z,7.20
2019-03-16T07:37:36.199Z,7.21
2019-03-16T07:38:36.139Z,7.24
2019-03-16T07:39:36.116Z,7.27
2019-03-16T07:40:36.090Z,7.24
2019-03-16T07:41:36.072Z,7.27
2019-03-16T07:42:36.043Z,7.21
2019-03-16T07:43:36.019Z,7.34
2019-03-16T07:44:36.001Z,7.30
2019-03-16T07:45:35.983Z,7.34
2019-03-16T07:46:35.955Z,7.34
2019-03-16T07:47:35.928Z,7.37
2019-03-16T07:48:35.922Z,7.40
2019-03-16T07:49:38.775Z,7.40
2019-03-16T07:50:35.856Z,7.48
2019-03-16T07:51:35.835Z,7.53
2019-03-16T07:52:35.811Z,7.42
2019-03-16T07:53:35.788Z,7.45
2019-03-16T07:54:35.772Z,7.50
2019-03-16T07:55:35.739Z,7.50
2019-03-16T07:56:35.722Z,7.63
2019-03-16T07:57:40.447Z,7.52
2019-03-16T07:58:35.740Z,7.63
2019-03-16T07:59:37.180Z,7.64
2019-03-16T08:00:35.629Z,7.63
2019-03-16T08:01:35.609Z,7.68
2019-03-16T08:02:35.578Z,7.64
2019-03-16T08:03:35.566Z,7.64
2019-03-16T08:04:35.532Z,7.72
2019-03-16T08:05:35.517Z,7.72
2019-03-16T08:06:35.484Z,7.75
2019-03-16T08:07:35.470Z,7.67
2019-03-16T08:08:35.449Z,7.71
2019-03-16T08:09:35.416Z,7.74
2019-03-16T08:10:35.395Z,7.83
2019-03-16T08:11:35.372Z,7.79
2019-03-16T08:12:35.352Z,7.72
2019-03-16T08:13:35.325Z,7.80
2019-03-16T08:14:35.303Z,7.82
2019-03-16T08:15:35.277Z,7.83
2019-03-16T08:16:35.251Z,7.83
2019-03-16T08:17:35.230Z,7.80
2019-03-16T08:18:35.205Z,7.86
2019-03-16T08:19:35.183Z,7.93
2019-03-16T08:20:35.163Z,7.93
2019-03-16T08:21:35.137Z,7.92
2019-03-16T08:22:35.118Z,7.93
2019-03-16T08:23:35.090Z,7.95
2019-03-16T08:24:35.075Z,7.92
2019-03-16T08:25:35.055Z,7.95
2019-03-16T08:26:35.023Z,7.90
2019-03-16T08:27:34.996Z,8.02
2019-03-16T08:28:34.979Z,8.05
2019-03-16T08:29:34.950Z,8.04
2019-03-16T08:30:34.932Z,8.01
2019-03-16T08:31:34.911Z,7.98
2019-03-16T08:32:34.884Z,8.05
2019-03-16T08:33:34.859Z,8.02
2019-03-16T08:34:34.833Z,7.97
2019-03-16T08:35:34.818Z,8.01
2019-03-16T08:36:34.795Z,8.02
2019-03-16T08:37:34.778Z,8.05
2019-03-16T08:38:34.750Z,7.97
2019-03-16T08:39:34.725Z,8.02
2019-03-16T08:40:34.708Z,8.04
2019-03-16T08:41:34.671Z,8.05
2019-03-16T08:42:34.653Z,8.07
2019-03-16T08:43:34.626Z,8.11
2019-03-16T08:44:34.602Z,8.12
2019-03-16T08:45:34.585Z,8.11
2019-03-16T08:46:34.556Z,8.19
2019-03-16T08:47:34.543Z,8.10
2019-03-16T08:48:34.511Z,8.08
2019-03-16T08:49:34.486Z,8.22
2019-03-16T08:50:34.464Z,8.10
2019-03-16T08:51:34.444Z,8.23
2019-03-16T08:52:34.417Z,8.18
2019-03-16T08:53:34.396Z,8.22
2019-03-16T08:54:34.374Z,8.22
2019-03-16T08:55:34.348Z,8.22
2019-03-16T08:56:34.324Z,8.25
2019-03-16T08:57:34.302Z,8.36
2019-03-16T08:58:34.285Z,8.34
2019-03-16T08:59:34.288Z,8.37
2019-03-16T09:00:34.239Z,8.40
2019-03-16T09:01:34.211Z,8.40
2019-03-16T09:02:34.186Z,8.44
2019-03-16T09:03:42.969Z,8.41
2019-03-16T09:04:34.141Z,8.37
2019-03-16T09:05:34.116Z,8.41
2019-03-16T09:06:34.094Z,8.48
2019-03-16T09:07:34.066Z,8.47
2019-03-16T09:08:34.060Z,8.52
2019-03-16T09:09:34.027Z,8.58
2019-03-16T09:10:33.997Z,8.58
2019-03-16T09:11:33.975Z,8.59
2019-03-16T09:12:33.954Z,8.59
2019-03-16T09:13:33.933Z,8.58
2019-03-16T09:14:33.918Z,8.63
2019-03-16T09:15:33.885Z,8.65
2019-03-16T09:16:33.860Z,8.62
2019-03-16T09:17:33.835Z,8.73
2019-03-16T09:18:33.839Z,8.73
2019-03-16T09:19:33.789Z,8.71
2019-03-16T09:20:33.769Z,8.79
2019-03-16T09:21:33.744Z,8.80
2019-03-16T09:22:33.732Z,8.94
2019-03-16T09:23:33.701Z,8.84
2019-03-16T09:24:33.686Z,8.83
2019-03-16T09:25:33.652Z,9.02
2019-03-16T09:26:33.641Z,9.05
2019-03-16T09:27:33.614Z,9.14
2019-03-16T09:28:33.598Z,9.23
2019-03-16T09:29:33.565Z,9.21
2019-03-16T09:30:33.537Z,9.26
2019-03-16T09:31:33.531Z,9.33
2019-03-16T09:32:33.494Z,9.28
2019-03-16T09:33:33.463Z,9.31
2019-03-16T09:34:33.447Z,9.32
2019-03-16T09:35:33.418Z,9.39
2019-03-16T09:36:33.402Z,9.47
2019-03-16T09:37:33.376Z,9.58
2019-03-16T09:38:33.347Z,9.54
2019-03-16T09:39:33.323Z,9.57
2019-03-16T09:40:33.313Z,9.58
2019-03-16T09:41:33.297Z,9.60
2019-03-16T09:42:33.254Z,9.66
2019-03-16T09:43:33.236Z,9.69
2019-03-16T09:44:33.212Z,9.71
2019-03-16T09:45:33.192Z,9.78
2019-03-16T09:46:33.177Z,9.84
2019-03-16T09:47:33.152Z,9.91
2019-03-16T09:48:33.124Z,9.86
2019-03-16T09:49:33.095Z,9.89
2019-03-16T09:50:33.079Z,9.87
2019-03-16T09:51:33.049Z,9.90
2019-03-16T09:52:33.030Z,10.02
2019-03-16T09:53:33.010Z,10.08
2019-03-16T09:54:32.984Z,10.14
2019-03-16T09:55:35.216Z,10.05
2019-03-16T09:56:32.934Z,10.15
2019-03-16T09:57:32.914Z,10.17
2019-03-16T09:58:32.888Z,10.15
2019-03-16T09:59:32.866Z,10.18
2019-03-16T10:00:32.844Z,10.25
2019-03-16T10:01:32.823Z,10.26
2019-03-16T10:02:32.795Z,10.29
2019-03-16T10:03:32.782Z,10.25
2019-03-16T10:04:32.753Z,10.36
2019-03-16T10:05:32.730Z,10.29
2019-03-16T10:06:32.705Z,10.40
2019-03-16T10:07:32.690Z,10.40
2019-03-16T10:08:32.661Z,10.36
2019-03-16T10:09:32.641Z,10.40
2019-03-16T10:10:32.618Z,10.36
2019-03-16T10:11:32.592Z,10.40
2019-03-16T10:12:32.570Z,10.44
2019-03-16T10:13:32.546Z,10.41
2019-03-16T10:14:32.536Z,10.38
2019-03-16T10:15:32.520Z,10.41
2019-03-16T10:16:32.481Z,10.38
2019-03-16T10:17:32.464Z,10.44
2019-03-16T10:18:32.434Z,10.36
2019-03-16T10:19:32.430Z,10.33
2019-03-16T10:20:32.400Z,10.34
2019-03-16T10:21:32.371Z,10.36
2019-03-16T10:22:32.355Z,10.45
2019-03-16T10:23:32.326Z,10.38
2019-03-16T10:24:32.307Z,10.40
2019-03-16T10:25:32.290Z,10.38
2019-03-16T10:26:32.258Z,10.38
2019-03-16T10:27:32.235Z,10.38
2019-03-16T10:28:43.243Z,10.33
2019-03-16T10:29:32.191Z,10.22
2019-03-16T10:30:32.164Z,10.25
2019-03-16T10:31:32.155Z,10.22
2019-03-16T10:32:32.116Z,10.25
2019-03-16T10:33:32.100Z,10.30
2019-03-16T10:34:32.070Z,10.32
2019-03-16T10:35:32.064Z,10.32
2019-03-16T10:36:32.046Z,10.26
2019-03-16T10:37:32.004Z,10.29
2019-03-16T10:38:31.983Z,10.25
2019-03-16T10:39:31.964Z,10.23
2019-03-16T10:40:31.936Z,10.26
2019-03-16T10:41:31.919Z,10.25
2019-03-16T10:42:31.892Z,10.27
2019-03-16T10:43:31.878Z,10.23
2019-03-16T10:44:31.847Z,10.15
2019-03-16T10:45:31.830Z,10.17
2019-03-16T10:46:31.802Z,10.32
2019-03-16T10:47:31.778Z,10.23
2019-03-16T10:48:31.769Z,10.36
2019-03-16T10:49:31.738Z,10.30
2019-03-16T10:50:31.709Z,10.25
2019-03-16T10:51:31.685Z,10.26
2019-03-16T10:52:31.667Z,10.30
2019-03-16T10:53:31.645Z,10.23
2019-03-16T10:54:31.617Z,10.30
2019-03-16T10:55:31.599Z,10.23
2019-03-16T10:56:31.578Z,10.25
2019-03-16T10:57:31.553Z,10.23
2019-03-16T10:58:31.543Z,10.23
2019-03-16T10:59:31.510Z,10.29
2019-03-16T11:00:31.488Z,10.27
2019-03-16T11:01:31.476Z,10.26
2019-03-16T11:02:31.436Z,10.25
2019-03-16T11:03:31.428Z,10.40
2019-03-16T11:04:31.395Z,10.34
2019-03-16T11:05:31.371Z,10.36
2019-03-16T11:06:31.354Z,10.40
2019-03-16T11:07:31.342Z,10.38
2019-03-16T11:08:31.316Z,10.42
2019-03-16T11:09:31.292Z,10.33
2019-03-16T11:10:31.280Z,10.38
2019-03-16T11:11:31.255Z,10.41
2019-03-16T11:12:31.215Z,10.41
2019-03-16T11:13:31.215Z,10.45
2019-03-16T11:14:31.180Z,10.48
2019-03-16T11:15:31.151Z,10.44
2019-03-16T11:16:31.127Z,10.48
2019-03-16T11:17:31.116Z,10.44
2019-03-16T11:18:31.084Z,10.42
2019-03-16T11:19:31.061Z,10.41
2019-03-16T11:20:31.041Z,10.45
2019-03-16T11:21:31.017Z,10.44
2019-03-16T11:22:30.990Z,10.41
2019-03-16T11:23:30.969Z,10.51
2019-03-16T11:24:30.941Z,10.52
2019-03-16T11:25:30.934Z,10.45
2019-03-16T11:26:30.898Z,10.48
2019-03-16T11:27:30.874Z,10.55
2019-03-16T11:28:30.856Z,10.56
2019-03-16T11:29:30.835Z,10.64
2019-03-16T11:30:30.814Z,10.56
2019-03-16T11:31:30.795Z,10.68
2019-03-16T11:32:30.762Z,10.60
2019-03-16T11:33:30.743Z,10.56
2019-03-16T11:34:30.727Z,10.64
2019-03-16T11:35:30.694Z,10.71
2019-03-16T11:36:30.673Z,10.67
2019-03-16T11:37:30.652Z,10.73
2019-03-16T11:38:30.628Z,10.67
2019-03-16T11:39:32.229Z,10.70
2019-03-16T11:40:30.582Z,10.71
2019-03-16T11:41:30.559Z,10.71
2019-03-16T11:42:30.557Z,10.64
2019-03-16T11:43:30.514Z,10.79
2019-03-16T11:44:30.505Z,10.73
2019-03-16T11:45:30.477Z,10.81
2019-03-16T11:46:30.458Z,10.81
2019-03-16T11:47:30.423Z,10.84
2019-03-16T11:48:30.400Z,10.78
2019-03-16T11:49:30.381Z,10.81
2019-03-16T11:50:30.368Z,10.92
2019-03-16T11:51:30.333Z,10.89
2019-03-16T11:52:30.314Z,10.92
2019-03-16T11:53:30.291Z,11.04
2019-03-16T11:54:30.286Z,10.97
2019-03-16T11:55:30.260Z,10.99
2019-03-16T11:56:30.223Z,11.00
2019-03-16T11:57:30.200Z,11.06
2019-03-16T11:58:30.178Z,11.04
2019-03-16T11:59:30.173Z,11.04
2019-03-16T12:00:30.137Z,11.06
2019-03-16T12:01:30.112Z,11.03
2019-03-16T12:02:30.097Z,10.97
2019-03-16T12:03:30.068Z,11.02
2019-03-16T12:04:30.048Z,11.03
2019-03-16T12:05:30.025Z,11.00
2019-03-16T12:06:30.005Z,11.02
2019-03-16T12:07:29.984Z,11.04
2019-03-16T12:08:29.959Z,11.03
2019-03-16T12:09:29.937Z,11.00
2019-03-16T12:10:29.917Z,11.04
2019-03-16T12:11:29.887Z,10.96
2019-03-16T12:12:29.871Z,11.09
2019-03-16T12:13:29.842Z,11.11
2019-03-16T12:14:29.822Z,11.10
2019-03-16T12:15:29.798Z,11.14
2019-03-16T12:16:29.775Z,11.11
2019-03-16T12:17:29.763Z,11.10
2019-03-16T12:18:29.743Z,11.14
2019-03-16T12:19:29.716Z,11.17
2019-03-16T12:20:29.701Z,11.10
2019-03-16T12:21:29.680Z,11.07
2019-03-16T12:22:29.713Z,11.06
2019-03-16T12:23:29.664Z,11.07
2019-03-16T12:24:29.610Z,11.10
2019-03-16T12:25:29.578Z,11.14
2019-03-16T12:26:29.555Z,11.11
2019-03-16T12:27:29.531Z,11.11
2019-03-16T12:28:29.512Z,11.17
2019-03-16T12:29:34.338Z,11.19
2019-03-16T12:30:29.464Z,11.17
2019-03-16T12:31:29.455Z,11.10
2019-03-16T12:32:29.433Z,11.10
2019-03-16T12:33:29.404Z,11.15
2019-03-16T12:34:29.384Z,11.09
2019-03-16T12:35:29.445Z,11.11
2019-03-16T12:36:29.333Z,11.18
2019-03-16T12:37:29.311Z,11.14
2019-03-16T12:38:29.292Z,11.19
2019-03-16T12:39:29.267Z,11.21
2019-03-16T12:40:29.249Z,11.14
2019-03-16T12:41:29.274Z,11.14
2019-03-16T12:42:29.203Z,11.25
2019-03-16T12:43:29.179Z,11.18
2019-03-16T12:44:29.160Z,11.27
2019-03-16T12:45:29.147Z,11.32
2019-03-16T12:46:29.128Z,11.27
2019-03-16T12:47:31.262Z,11.32
2019-03-16T12:48:29.076Z,11.36
2019-03-16T12:49:29.049Z,11.36
2019-03-16T12:50:29.031Z,11.36
2019-03-16T12:51:29.002Z,11.37
2019-03-16T12:52:28.977Z,11.29
2019-03-16T12:53:28.962Z,11.33
2019-03-16T12:54:28.938Z,11.37
2019-03-16T12:55:28.916Z,11.33
2019-03-16T12:56:28.898Z,11.29
2019-03-16T12:57:28.870Z,11.28
2019-03-16T12:58:28.853Z,11.36
2019-03-16T12:59:28.830Z,11.32
2019-03-16T13:00:28.811Z,11.29
2019-03-16T13:01:28.782Z,11.40
2019-03-16T13:02:28.759Z,11.36
2019-03-16T13:03:28.734Z,11.33
2019-03-16T13:04:28.715Z,11.29
2019-03-16T13:05:28.704Z,11.40
2019-03-16T13:06:28.677Z,11.37
2019-03-16T13:07:28.660Z,11.42
2019-03-16T13:08:28.626Z,11.32
2019-03-16T13:09:28.610Z,11.39
2019-03-16T13:10:28.580Z,11.40
2019-03-16T13:11:28.559Z,11.39